createdAt,value
2019-05-09T00:00:11.478Z,4.10
2019-05-09T00:02:44.531Z,5.40
2019-05-09T00:06:04.598Z,3.53
2019-05-09T00:08:35.852Z,3.27
2019-05-09T00:11:09.230Z,3.07
2019-05-09T00:13:43.484Z,2.50
2019-05-09T00:16:23.487Z,3.03
2019-05-09T00:18:59.217Z,3.17
2019-05-09T00:24:21.079Z,4.07
2019-05-09T00:29:52.991Z,3.00
2019-05-09T00:35:33.803Z,3.73
2019-05-09T00:38:04.539Z,4.73
2019-05-09T00:40:55.933Z,3.07
2019-05-09T00:43:26.754Z,3.63
2019-05-09T00:46:55.868Z,3.33
2019-05-09T00:49:34.117Z,3.93
2019-05-09T00:54:50.099Z,2.73
2019-05-09T01:00:25.507Z,5.27
2019-05-09T01:02:58.321Z,5.20
2019-05-09T01:06:07.866Z,3.57
2019-05-09T01:08:44.921Z,3.40
2019-05-09T01:14:09.414Z,1.70
2019-05-09T01:19:30.842Z,2.93
2019-05-09T01:24:56.519Z,5.57
2019-05-09T01:27:27.122Z,8.80
2019-05-09T01:30:07.595Z,2.70
2019-05-09T01:36:19.769Z,3.23
2019-05-09T01:38:56.408Z,3.87
2019-05-09T01:41:30.981Z,2.10
2019-05-09T01:44:10.792Z,4.47
2019-05-09T01:46:45.533Z,2.87
2019-05-09T01:49:23.251Z,2.73
2019-05-09T01:51:54.211Z,2.70
2019-05-09T01:54:33.410Z,2.20
2019-05-09T01:57:18.351Z,4.47
2019-05-09T01:59:53.227Z,3.00
2019-05-09T02:02:28.856Z,3.93
2019-05-09T02:05:04.165Z,3.13
2019-05-09T02:07:40.199Z,6.07
2019-05-09T02:10:19.610Z,3.43
2019-05-09T02:12:57.569Z,4.37
2019-05-09T02:15:28.615Z,2.93
2019-05-09T02:18:15.653Z,3.03
2019-05-09T02:20:53.277Z,3.97
2019-05-09T02:23:26.311Z,3.53
2019-05-09T02:25:56.942Z,5.97
2019-05-09T02:28:34.116Z,4.30
2019-05-09T02:31:15.724Z,3.40
2019-05-09T02:33:49.310Z,8.43
2019-05-09T02:36:22.705Z,3.03
2019-05-09T02:38:54.092Z,4.33
2019-05-09T02:41:31.122Z,4.97
2019-05-09T02:44:03.772Z,3.20
2019-05-09T02:46:42.001Z,5.73
2019-05-09T02:49:19.134Z,4.33
2019-05-09T02:51:52.293Z,3.67
2019-05-09T02:54:25.411Z,4.53
2019-05-09T02:57:00.883Z,4.33
2019-05-09T02:59:31.875Z,2.27
2019-05-09T03:02:10.077Z,2.67
2019-05-09T03:04:41.034Z,2.43
2019-05-09T03:07:13.188Z,5.53
2019-05-09T03:09:48.179Z,5.67
2019-05-09T03:12:30.541Z,4.80
2019-05-09T03:14:52.677Z,2.63
2019-05-09T03:17:28.052Z,4.83
2019-05-09T03:20:01.597Z,4.97
2019-05-09T03:22:33.496Z,4.77
2019-05-09T03:25:12.012Z,4.80
2019-05-09T03:27:43.468Z,4.07
2019-05-09T03:30:29.507Z,5.37
2019-05-09T03:33:01.169Z,3.07
2019-05-09T03:35:33.429Z,4.63
2019-05-09T03:38:17.847Z,5.00
2019-05-09T03:40:48.856Z,6.90
2019-05-09T03:43:18.379Z,3.60
2019-05-09T03:45:52.294Z,7.67
2019-05-09T03:48:34.277Z,4.30
2019-05-09T03:51:08.127Z,5.37
2019-05-09T03:53:43.435Z,6.40
2019-05-09T03:56:30.662Z,5.17
2019-05-09T03:59:08.599Z,3.90
2019-05-09T04:01:41.998Z,3.30
2019-05-09T04:04:12.066Z,6.50
2019-05-09T04:06:50.413Z,6.03
2019-05-09T04:09:21.802Z,5.17
2019-05-09T04:11:53.961Z,4.37
2019-05-09T04:14:28.219Z,5.17
2019-05-09T04:17:04.908Z,3.73
2019-05-09T04:19:40.428Z,4.70
2019-05-09T04:22:09.819Z,3.37
2019-05-09T04:24:47.348Z,3.50
2019-05-09T04:27:22.500Z,3.93
2019-05-09T04:29:52.815Z,4.17
2019-05-09T04:32:28.361Z,4.70
2019-05-09T04:35:08.130Z,4.13
2019-05-09T04:37:40.775Z,4.33
2019-05-09T04:40:17.736Z,2.93
2019-05-09T04:42:47.409Z,3.63
2019-05-09T04:45:22.927Z,4.30
2019-05-09T04:47:57.654Z,6.13
2019-05-09T04:50:28.956Z,4.20
2019-05-09T04:53:01.909Z,4.20
2019-05-09T04:55:34.393Z,2.77
2019-05-09T04:58:09.095Z,3.97
2019-05-09T05:00:57.587Z,2.30
2019-05-09T05:03:32.146Z,3.43
2019-05-09T05:06:13.123Z,3.53
2019-05-09T05:08:42.232Z,3.97
2019-05-09T05:11:13.394Z,5.57
2019-05-09T05:13:48.612Z,2.50
2019-05-09T05:16:23.750Z,1.43
2019-05-09T05:18:58.619Z,4.08
2019-05-09T05:21:29.376Z,3.70
2019-05-09T05:24:04.171Z,2.50
2019-05-09T05:26:38.079Z,4.37
2019-05-09T05:29:13.415Z,4.30
2019-05-09T05:31:43.446Z,3.73
2019-05-09T05:34:18.146Z,3.23
2019-05-09T05:36:48.796Z,2.50
2019-05-09T05:39:21.424Z,4.13
2019-05-09T05:41:53.128Z,7.10
2019-05-09T05:44:28.911Z,3.07
2019-05-09T05:47:04.930Z,3.70
2019-05-09T05:49:38.326Z,5.17
2019-05-09T05:52:19.855Z,2.03
2019-05-09T05:54:50.683Z,3.43
2019-05-09T05:57:24.467Z,4.00
2019-05-09T06:00:03.318Z,3.30
2019-05-09T06:02:33.325Z,4.43
2019-05-09T06:05:13.308Z,2.63
2019-05-09T06:07:42.777Z,4.83
2019-05-09T06:10:24.774Z,5.33
2019-05-09T06:12:57.451Z,2.83
2019-05-09T06:15:28.645Z,4.87
2019-05-09T06:18:00.198Z,4.37
2019-05-09T06:20:31.552Z,3.67
2019-05-09T06:23:08.571Z,5.00
2019-05-09T06:25:48.486Z,3.50
2019-05-09T06:28:27.540Z,2.40
2019-05-09T06:31:00.849Z,4.23
2019-05-09T06:33:35.327Z,4.33
2019-05-09T06:36:08.070Z,2.83
2019-05-09T06:38:38.611Z,4.53
2019-05-09T06:41:12.069Z,4.67
2019-05-09T06:43:44.871Z,4.20
2019-05-09T06:46:34.401Z,5.00
2019-05-09T06:49:23.242Z,2.73
2019-05-09T06:51:38.859Z,1.67
2019-05-09T06:54:11.499Z,2.43
2019-05-09T06:56:47.444Z,2.10
2019-05-09T06:59:15.737Z,3.57
2019-05-09T07:01:50.095Z,2.70
2019-05-09T07:04:35.189Z,2.73
2019-05-09T07:07:14.356Z,2.40
2019-05-09T07:09:50.506Z,3.03
2019-05-09T07:12:23.746Z,3.37
2019-05-09T07:14:54.529Z,2.73
2019-05-09T07:17:31.726Z,1.97
2019-05-09T07:20:08.165Z,3.87
2019-05-09T07:22:53.938Z,2.17
2019-05-09T07:25:33.794Z,4.63
2019-05-09T07:28:03.156Z,3.00
2019-05-09T07:31:07.525Z,1.43
2019-05-09T07:33:47.590Z,2.10
2019-05-09T07:36:18.878Z,3.53
2019-05-09T07:38:51.310Z,3.53
2019-05-09T07:41:25.292Z,1.47
2019-05-09T07:43:58.308Z,1.60
2019-05-09T07:46:34.143Z,2.60
2019-05-09T07:49:08.659Z,1.10
2019-05-09T07:51:42.174Z,0.93
2019-05-09T07:54:24.494Z,1.00
2019-05-09T07:56:48.610Z,1.03
2019-05-09T07:59:28.347Z,1.60
2019-05-09T08:01:54.817Z,1.73
2019-05-09T08:04:28.662Z,1.17
2019-05-09T08:06:58.255Z,1.00
2019-05-09T08:09:32.359Z,7.10
2019-05-09T08:12:07.482Z,2.07
2019-05-09T08:15:07.622Z,1.50
2019-05-09T08:17:28.674Z,1.23
2019-05-09T08:20:22.557Z,1.60
2019-05-09T08:22:58.669Z,1.47
2019-05-09T08:25:28.204Z,3.00
2019-05-09T08:28:00.315Z,1.37
2019-05-09T08:30:35.856Z,3.37
2019-05-09T08:33:01.735Z,3.90
2019-05-09T08:35:31.026Z,1.27
2019-05-09T08:38:00.563Z,0.90
2019-05-09T08:40:29.121Z,1.93
2019-05-09T08:43:08.620Z,1.45
2019-05-09T08:45:43.196Z,1.63
2019-05-09T08:48:14.685Z,4.03
2019-05-09T08:50:49.142Z,1.60
2019-05-09T08:53:23.372Z,1.30
2019-05-09T08:55:54.725Z,1.72
2019-05-09T08:58:23.845Z,2.23
2019-05-09T09:01:02.820Z,0.97
2019-05-09T09:03:29.143Z,0.90
2019-05-09T09:06:01.023Z,1.90
2019-05-09T09:08:38.005Z,2.50
2019-05-09T09:16:49.325Z,2.10
2019-05-09T09:19:39.673Z,0.87
2019-05-09T09:22:12.943Z,1.10
2019-05-09T09:24:49.105Z,1.97
2019-05-09T09:27:33.803Z,2.60
2019-05-09T09:30:16.452Z,1.10
2019-05-09T09:32:35.087Z,1.90
2019-05-09T09:35:10.660Z,2.60
2019-05-09T09:37:48.609Z,1.27
2019-05-09T09:40:12.062Z,0.90
2019-05-09T09:42:45.334Z,2.80
2019-05-09T09:45:37.634Z,0.60
2019-05-09T09:48:09.176Z,1.70
2019-05-09T09:50:51.329Z,1.00
2019-05-09T09:53:23.336Z,1.63
2019-05-09T09:55:54.121Z,0.80
2019-05-09T09:58:39.817Z,0.70
2019-05-09T10:01:10.469Z,0.60
2019-05-09T10:03:40.509Z,1.70
2019-05-09T10:06:19.975Z,0.93
2019-05-09T10:09:01.444Z,0.97
2019-05-09T10:11:34.796Z,0.70
2019-05-09T10:14:07.861Z,1.02
2019-05-09T10:16:47.862Z,0.70
2019-05-09T10:19:27.840Z,0.50
2019-05-09T10:22:01.550Z,1.13
2019-05-09T10:24:38.184Z,0.80
2019-05-09T10:27:18.519Z,2.30
2019-05-09T10:29:50.342Z,1.50
2019-05-09T10:32:19.065Z,1.10
2019-05-09T10:34:48.881Z,4.20
2019-05-09T10:37:27.663Z,1.80
2019-05-09T10:42:58.778Z,0.80
2019-05-09T10:45:30.056Z,0.90
2019-05-09T10:48:03.287Z,0.50
2019-05-09T10:50:35.265Z,1.47
2019-05-09T10:53:10.871Z,0.60
2019-05-09T10:58:37.593Z,0.60
2019-05-09T11:01:13.276Z,1.40
2019-05-09T11:03:41.931Z,0.83
2019-05-09T11:06:14.161Z,0.60
2019-05-09T11:08:47.560Z,1.20
2019-05-09T11:11:40.357Z,0.57
2019-05-09T11:14:08.510Z,2.87
2019-05-09T11:16:44.920Z,0.97
2019-05-09T11:19:10.612Z,0.57
2019-05-09T11:21:52.929Z,1.40
2019-05-09T11:24:41.113Z,0.80
2019-05-09T11:27:12.266Z,0.80
2019-05-09T11:29:46.451Z,2.27
2019-05-09T11:35:35.119Z,1.07
2019-05-09T11:38:39.826Z,0.50
2019-05-09T11:41:13.523Z,0.87
2019-05-09T11:43:44.700Z,1.67
2019-05-09T11:46:21.779Z,1.63
2019-05-09T11:48:58.520Z,4.00
2019-05-09T11:51:34.194Z,1.77
2019-05-09T11:54:27.756Z,0.30
2019-05-09T11:56:57.706Z,0.40
2019-05-09T11:59:31.456Z,2.27
2019-05-09T12:02:14.592Z,1.47
2019-05-09T12:04:57.790Z,0.70
2019-05-09T12:07:41.172Z,1.10
2019-05-09T12:10:14.687Z,1.30
2019-05-09T12:12:43.979Z,2.20
2019-05-09T12:15:12.513Z,0.87
2019-05-09T12:17:56.026Z,0.70
2019-05-09T12:20:15.334Z,1.23
2019-05-09T12:22:44.820Z,0.83
2019-05-09T12:25:14.260Z,1.47
2019-05-09T12:27:51.044Z,0.67
2019-05-09T12:30:19.371Z,0.63
2019-05-09T12:32:51.230Z,1.30
2019-05-09T12:35:23.974Z,1.17
2019-05-09T12:37:53.391Z,0.90
2019-05-09T12:40:25.721Z,0.83
2019-05-09T12:42:57.794Z,0.80
2019-05-09T12:45:26.659Z,1.13
2019-05-09T12:48:07.548Z,2.07
2019-05-09T12:50:29.426Z,0.93
2019-05-09T12:52:58.907Z,0.50
2019-05-09T12:55:27.643Z,1.37
2019-05-09T12:58:03.371Z,4.03
2019-05-09T13:00:39.524Z,0.83
2019-05-09T13:03:10.182Z,1.10
2019-05-09T13:05:40.180Z,2.00
2019-05-09T13:08:17.779Z,0.63
2019-05-09T13:10:50.503Z,0.87
2019-05-09T13:13:31.922Z,0.93
2019-05-09T13:16:04.373Z,0.60
2019-05-09T13:18:53.780Z,1.00
2019-05-09T13:21:27.854Z,1.43
2019-05-09T13:23:59.062Z,0.70
2019-05-09T13:26:38.485Z,0.53
2019-05-09T13:32:01.400Z,1.32
2019-05-09T13:34:34.818Z,0.80
2019-05-09T13:37:10.685Z,0.87
2019-05-09T13:39:47.596Z,0.70
2019-05-09T13:42:28.435Z,1.03
2019-05-09T13:45:02.536Z,0.53
2019-05-09T13:47:38.926Z,0.73
2019-05-09T13:50:12.892Z,0.80
2019-05-09T13:52:43.306Z,0.67
2019-05-09T13:55:22.838Z,0.70
2019-05-09T13:57:59.434Z,1.43
2019-05-09T14:00:33.325Z,1.10
2019-05-09T14:03:11.402Z,1.93
2019-05-09T14:05:40.863Z,0.70
2019-05-09T14:08:11.865Z,0.70
2019-05-09T14:10:44.590Z,0.90
2019-05-09T14:13:15.955Z,0.97
2019-05-09T14:15:48.631Z,0.50
2019-05-09T14:18:18.928Z,0.50
2019-05-09T14:20:53.134Z,1.00
2019-05-09T14:23:19.142Z,1.10
2019-05-09T14:25:52.065Z,0.63
2019-05-09T14:28:21.155Z,0.70
2019-05-09T14:30:51.666Z,0.60
2019-05-09T14:33:22.495Z,1.40
2019-05-09T14:35:54.013Z,1.10
2019-05-09T14:38:39.153Z,3.40
2019-05-09T14:41:08.942Z,1.30
2019-05-09T14:43:41.852Z,0.80
2019-05-09T14:46:12.576Z,0.90
2019-05-09T14:48:43.815Z,0.77
2019-05-09T14:51:19.338Z,0.80
2019-05-09T14:53:48.719Z,0.87
2019-05-09T14:56:19.508Z,1.20
2019-05-09T14:58:51.016Z,1.20
2019-05-09T15:01:20.140Z,0.97
2019-05-09T15:03:55.158Z,1.40
2019-05-09T15:06:37.853Z,1.77
2019-05-09T15:09:14.273Z,1.90
2019-05-09T15:11:44.912Z,1.30
2019-05-09T15:14:32.927Z,1.97
2019-05-09T15:17:09.799Z,1.00
2019-05-09T15:19:38.992Z,1.20
2019-05-09T15:22:14.483Z,1.13
2019-05-09T15:24:51.787Z,0.90
2019-05-09T15:27:27.978Z,1.00
2019-05-09T15:30:07.227Z,2.63
2019-05-09T15:32:41.615Z,0.83
2019-05-09T15:35:12.439Z,1.10
2019-05-09T15:37:43.918Z,1.07
2019-05-09T15:40:19.260Z,1.70
2019-05-09T15:42:59.682Z,0.70
2019-05-09T15:45:40.531Z,1.87
2019-05-09T15:48:08.571Z,2.00
2019-05-09T15:50:47.705Z,1.50
2019-05-09T15:53:19.085Z,1.57
2019-05-09T15:55:51.464Z,1.10
2019-05-09T15:58:22.823Z,0.70
2019-05-09T16:00:54.352Z,0.63
2019-05-09T16:03:30.685Z,3.27
2019-05-09T16:06:03.054Z,0.93
2019-05-09T16:08:38.133Z,0.80
2019-05-09T16:11:08.688Z,1.13
2019-05-09T16:13:43.941Z,0.87
2019-05-09T16:16:13.548Z,0.83
2019-05-09T16:18:48.549Z,1.63
2019-05-09T16:21:24.411Z,1.07
2019-05-09T16:23:59.266Z,1.90
2019-05-09T16:29:48.569Z,2.03
2019-05-09T16:32:43.748Z,0.67
2019-05-09T16:35:28.672Z,0.63
2019-05-09T16:38:43.005Z,0.83
2019-05-09T16:41:07.692Z,0.50
2019-05-09T16:44:33.932Z,0.83
2019-05-09T16:47:03.555Z,0.50
2019-05-09T16:50:23.637Z,2.30
2019-05-09T16:52:52.814Z,0.60
2019-05-09T16:55:37.956Z,1.27
2019-05-09T16:58:04.116Z,1.13
2019-05-09T17:01:28.397Z,1.83
2019-05-09T17:04:09.801Z,0.40
2019-05-09T17:07:24.185Z,0.63
2019-05-09T17:09:51.139Z,1.10
2019-05-09T17:12:58.288Z,1.37
2019-05-09T17:15:39.060Z,1.00
2019-05-09T17:18:10.534Z,0.70
2019-05-09T17:20:51.205Z,1.10
2019-05-09T17:23:50.880Z,1.30
2019-05-09T17:26:28.442Z,1.50
2019-05-09T17:29:35.181Z,2.53
2019-05-09T17:32:07.800Z,2.20
2019-05-09T17:35:27.760Z,2.17
2019-05-09T17:37:56.404Z,0.80
2019-05-09T17:43:23.686Z,1.73
2019-05-09T17:55:07.515Z,3.70
2019-05-09T17:58:24.939Z,3.20
2019-05-09T18:00:48.374Z,2.43
2019-05-09T18:19:04.817Z,1.23
2019-05-09T18:22:04.825Z,2.30
2019-05-09T18:24:43.650Z,1.10
2019-05-09T18:27:50.802Z,1.00
2019-05-09T18:30:22.403Z,1.10
2019-05-09T18:32:52.607Z,1.13
2019-05-09T18:35:33.083Z,0.90
2019-05-09T18:38:18.884Z,0.93
2019-05-09T18:40:49.909Z,1.13
2019-05-09T18:43:22.867Z,2.63
2019-05-09T18:49:42.108Z,1.20
2019-05-09T18:52:12.415Z,1.30
2019-05-09T18:54:47.102Z,2.03
2019-05-09T18:57:41.183Z,1.50
2019-05-09T19:00:26.015Z,2.43
2019-05-09T19:03:28.075Z,1.40
2019-05-09T19:06:00.371Z,1.23
2019-05-09T19:08:32.624Z,1.50
2019-05-09T19:11:38.314Z,2.00
2019-05-09T19:14:10.624Z,2.03
2019-05-09T19:16:44.714Z,2.67
2019-05-09T19:19:26.566Z,2.87
2019-05-09T19:22:04.463Z,1.00
2019-05-09T19:27:40.354Z,1.20
2019-05-09T19:30:10.592Z,1.30
2019-05-09T19:33:22.935Z,1.70
2019-05-09T19:38:43.355Z,1.70
2019-05-09T19:41:45.851Z,2.30
2019-05-09T19:44:14.616Z,2.10
2019-05-09T19:49:39.101Z,2.57
2019-05-09T19:52:10.095Z,3.00
2019-05-09T19:57:48.499Z,2.37
2019-05-09T20:00:24.224Z,2.53
2019-05-09T20:02:55.887Z,1.07
2019-05-09T20:05:30.494Z,2.53
2019-05-09T20:08:43.756Z,1.93
2019-05-09T20:11:36.195Z,2.63
2019-05-09T20:17:31.472Z,2.00
2019-05-09T20:20:14.471Z,2.33
2019-05-09T20:22:59.273Z,2.77
2019-05-09T20:28:13.743Z,2.17
2019-05-09T20:30:44.041Z,1.43
2019-05-09T20:36:11.422Z,1.83
2019-05-09T20:38:42.279Z,1.20
2019-05-09T20:41:22.980Z,3.60
2019-05-09T20:43:57.592Z,3.33
2019-05-09T20:46:36.854Z,3.97
2019-05-09T20:49:11.915Z,2.43
2019-05-09T20:51:43.505Z,4.43
2019-05-09T20:54:21.158Z,2.90
2019-05-09T20:56:50.107Z,2.10
2019-05-09T20:59:27.096Z,3.30
2019-05-09T21:02:54.378Z,3.50
2019-05-09T21:05:24.028Z,2.53
2019-05-09T21:10:49.234Z,2.63
2019-05-09T21:13:21.413Z,3.97
2019-05-09T21:19:05.080Z,4.17
2019-05-09T21:21:36.373Z,3.23
2019-05-09T21:24:08.139Z,2.47
2019-05-09T21:26:38.352Z,3.00
2019-05-09T21:32:10.349Z,4.13
2019-05-09T21:34:45.032Z,2.93
2019-05-09T21:37:16.085Z,2.20
2019-05-09T21:39:48.370Z,2.47
2019-05-09T21:42:48.702Z,3.30
2019-05-09T21:45:18.527Z,2.47
2019-05-09T21:47:49.225Z,3.97
2019-05-09T21:56:36.284Z,2.30
2019-05-09T21:59:06.971Z,3.13
2019-05-09T22:01:37.773Z,4.80
2019-05-09T22:04:40.684Z,3.37
2019-05-09T22:07:11.432Z,2.17
2019-05-09T22:09:43.300Z,3.97
2019-05-09T22:12:21.497Z,2.67
2019-05-09T22:14:55.470Z,4.63
2019-05-09T22:20:26.262Z,3.90
2019-05-09T22:22:55.406Z,3.53
2019-05-09T22:26:00.655Z,3.60
2019-05-09T22:28:30.859Z,3.53
2019-05-09T22:31:02.177Z,3.20
2019-05-09T22:33:37.679Z,3.10
2019-05-09T22:36:06.497Z,4.30
2019-05-09T22:38:36.609Z,3.83
2019-05-09T22:41:12.959Z,4.60
2019-05-09T22:43:43.552Z,3.87
2019-05-09T22:47:04.195Z,4.43
2019-05-09T22:49:33.793Z,4.50
2019-05-09T22:52:04.951Z,3.90
2019-05-09T23:07:28.012Z,3.83
2019-05-09T23:09:58.274Z,3.53
2019-05-09T23:13:12.213Z,5.67
2019-05-09T23:15:41.269Z,2.57
2019-05-09T23:18:10.557Z,3.83
2019-05-09T23:21:17.769Z,2.50
2019-05-09T23:23:53.935Z,8.53
2019-05-09T23:26:24.086Z,6.47
2019-05-09T23:28:58.709Z,5.83
2019-05-09T23:31:29.009Z,4.83
2019-05-09T23:33:59.335Z,5.43
2019-05-09T23:36:35.213Z,4.53
2019-05-09T23:39:09.934Z,5.07
2019-05-09T23:42:24.298Z,4.97
2019-05-09T23:44:53.188Z,5.40
2019-05-09T23:47:21.919Z,3.37
2019-05-09T23:56:46.904Z,3.13
2019-05-09T23:59:33.268Z,6.40
